createdAt,value
2023-05-06T00:00:49.898Z,11.87
2023-05-06T00:03:18.773Z,11.47
2023-05-06T00:05:47.564Z,12.90
2023-05-06T00:08:15.894Z,13.40
2023-05-06T00:10:44.227Z,11.87
2023-05-06T00:13:13.503Z,13.30
2023-05-06T00:15:43.062Z,13.00
2023-05-06T00:18:11.175Z,12.70
2023-05-06T00:20:39.348Z,14.30
2023-05-06T00:23:07.475Z,13.87
2023-05-06T00:25:35.727Z,12.30
2023-05-06T00:28:03.754Z,14.63
2023-05-06T00:30:32.196Z,13.53
2023-05-06T00:33:03.274Z,13.03
2023-05-06T00:35:32.188Z,13.23
2023-05-06T00:38:09.732Z,12.47
2023-05-06T00:40:38.289Z,13.37
2023-05-06T00:43:06.898Z,14.60
2023-05-06T00:45:35.412Z,13.70
2023-05-06T00:48:06.496Z,14.73
2023-05-06T00:50:36.075Z,15.07
2023-05-06T00:53:07.405Z,15.20
2023-05-06T00:55:35.757Z,13.57
2023-05-06T00:58:04.756Z,13.87
2023-05-06T01:00:33.308Z,13.40
2023-05-06T01:03:01.893Z,15.53
2023-05-06T01:05:37.095Z,14.83
2023-05-06T01:08:13.628Z,14.70
2023-05-06T01:10:49.230Z,14.00
2023-05-06T01:13:26.112Z,14.00
2023-05-06T01:15:56.663Z,15.00
2023-05-06T01:18:27.864Z,15.83
2023-05-06T01:20:59.365Z,14.07
2023-05-06T01:23:30.248Z,15.00
2023-05-06T01:25:58.420Z,17.33
2023-05-06T01:28:26.743Z,17.37
2023-05-06T01:31:00.935Z,17.13
2023-05-06T01:33:38.785Z,17.33
2023-05-06T01:36:16.381Z,17.13
2023-05-06T01:38:54.232Z,17.97
2023-05-06T01:41:24.428Z,17.60
2023-05-06T01:43:56.476Z,17.83
2023-05-06T01:46:26.813Z,17.70
2023-05-06T01:48:56.521Z,16.43
2023-05-06T01:51:25.081Z,16.37
2023-05-06T01:53:54.920Z,15.30
2023-05-06T01:56:23.607Z,15.73
2023-05-06T01:58:51.864Z,16.73
2023-05-06T02:01:20.386Z,15.63
2023-05-06T02:03:48.712Z,16.97
2023-05-06T02:06:17.263Z,15.27
2023-05-06T02:08:45.897Z,17.43
2023-05-06T02:11:15.343Z,16.43
2023-05-06T02:13:43.478Z,14.90
2023-05-06T02:16:11.728Z,16.83
2023-05-06T02:18:39.870Z,15.50
2023-05-06T02:21:08.366Z,16.10
2023-05-06T02:23:36.704Z,12.67
2023-05-06T02:26:06.306Z,12.97
2023-05-06T02:28:35.903Z,13.43
2023-05-06T02:31:04.084Z,12.10
2023-05-06T02:33:33.483Z,13.43
2023-05-06T02:36:01.665Z,12.40
2023-05-06T02:38:29.714Z,11.77
2023-05-06T02:40:59.656Z,11.23
2023-05-06T02:43:28.013Z,11.07
2023-05-06T02:45:57.592Z,8.63
2023-05-06T02:48:25.929Z,11.03
2023-05-06T02:50:54.020Z,10.57
2023-05-06T02:53:22.371Z,10.67
2023-05-06T02:55:50.751Z,10.17
2023-05-06T02:58:18.927Z,10.37
2023-05-06T03:00:46.970Z,9.97
2023-05-06T03:03:17.257Z,11.87
2023-05-06T03:05:47.306Z,10.50
2023-05-06T03:08:16.052Z,11.53
2023-05-06T03:10:44.233Z,12.23
2023-05-06T03:13:12.270Z,14.43
2023-05-06T03:15:41.694Z,12.50
2023-05-06T03:18:09.859Z,13.60
2023-05-06T03:20:41.098Z,12.63
2023-05-06T03:23:09.091Z,14.50
2023-05-06T03:25:37.115Z,14.63
2023-05-06T03:28:05.823Z,14.20
2023-05-06T03:30:34.774Z,13.73
2023-05-06T03:33:03.775Z,12.20
2023-05-06T03:35:32.097Z,14.20
2023-05-06T03:38:02.153Z,14.43
2023-05-06T03:40:30.754Z,14.10
2023-05-06T03:42:58.814Z,13.87
2023-05-06T03:45:27.007Z,17.43
2023-05-06T03:47:58.434Z,16.07
2023-05-06T03:50:27.462Z,14.53
2023-05-06T03:52:55.763Z,14.70
2023-05-06T03:55:25.413Z,16.50
2023-05-06T03:57:53.366Z,16.87
2023-05-06T04:00:22.099Z,16.27
2023-05-06T04:02:51.555Z,15.13
2023-05-06T04:05:19.857Z,14.87
2023-05-06T04:07:48.000Z,16.03
2023-05-06T04:10:16.231Z,16.50
2023-05-06T04:12:46.191Z,14.83
2023-05-06T04:15:14.511Z,14.77
2023-05-06T04:17:42.968Z,16.03
2023-05-06T04:20:12.633Z,16.97
2023-05-06T04:22:41.530Z,15.10
2023-05-06T04:25:11.430Z,15.23
2023-05-06T04:27:39.855Z,16.23
2023-05-06T04:30:12.029Z,15.13
2023-05-06T04:32:41.260Z,15.30
2023-05-06T04:35:10.883Z,15.47
2023-05-06T04:37:39.910Z,15.43
2023-05-06T04:40:09.466Z,15.03
2023-05-06T04:42:39.707Z,16.27
2023-05-06T04:45:11.778Z,13.83
2023-05-06T04:47:40.167Z,14.20
2023-05-06T04:50:09.067Z,15.07
2023-05-06T04:52:38.706Z,16.90
2023-05-06T04:55:09.537Z,15.10
2023-05-06T04:57:37.753Z,14.83
2023-05-06T05:00:07.319Z,13.73
2023-05-06T05:02:39.643Z,12.03
2023-05-06T05:05:08.719Z,12.80
2023-05-06T05:07:37.057Z,13.70
2023-05-06T05:10:05.857Z,12.50
2023-05-06T05:12:33.917Z,13.67
2023-05-06T05:15:01.982Z,12.67
2023-05-06T05:17:30.583Z,12.70
2023-05-06T05:20:01.407Z,12.40
2023-05-06T05:22:29.737Z,13.17
2023-05-06T05:24:58.400Z,13.03
2023-05-06T05:27:26.768Z,14.20
2023-05-06T05:29:54.738Z,14.37
2023-05-06T05:32:22.699Z,14.07
2023-05-06T05:34:51.350Z,15.30
2023-05-06T05:37:21.030Z,15.47
2023-05-06T05:39:49.535Z,13.67
2023-05-06T05:42:18.293Z,13.60
2023-05-06T05:44:46.616Z,16.70
2023-05-06T05:47:17.059Z,13.97
2023-05-06T05:49:45.056Z,14.87
2023-05-06T05:52:13.336Z,16.37
2023-05-06T05:54:43.260Z,15.50
2023-05-06T05:57:11.510Z,15.07
2023-05-06T05:59:39.548Z,14.33
2023-05-06T06:02:08.089Z,15.83
2023-05-06T06:04:39.596Z,15.37
2023-05-06T06:07:08.223Z,16.37
2023-05-06T06:09:36.509Z,15.93
2023-05-06T06:12:06.495Z,12.07
2023-05-06T06:14:37.734Z,11.90
2023-05-06T06:17:07.304Z,15.57
2023-05-06T06:19:36.036Z,18.60
2023-05-06T06:22:09.899Z,18.10
2023-05-06T06:24:38.053Z,17.03
2023-05-06T06:27:10.448Z,15.30
2023-05-06T06:29:39.528Z,16.83
2023-05-06T06:32:09.577Z,17.23
2023-05-06T06:34:38.123Z,17.77
2023-05-06T06:37:08.014Z,18.47
2023-05-06T06:39:36.303Z,16.80
2023-05-06T06:42:07.183Z,17.30
2023-05-06T06:44:38.223Z,17.97
2023-05-06T06:47:06.302Z,17.97
2023-05-06T06:49:35.918Z,18.53
2023-05-06T06:52:03.934Z,20.67
2023-05-06T06:54:33.383Z,18.73
2023-05-06T06:57:01.755Z,20.50
2023-05-06T06:59:30.092Z,20.07
2023-05-06T07:01:59.779Z,20.77
2023-05-06T07:04:28.305Z,19.50
2023-05-06T07:06:56.872Z,19.30
2023-05-06T07:09:25.036Z,18.70
2023-05-06T07:11:53.396Z,16.43
2023-05-06T07:14:22.178Z,15.90
2023-05-06T07:16:51.576Z,14.47
2023-05-06T07:19:21.503Z,13.40
2023-05-06T07:21:51.346Z,12.77
2023-05-06T07:24:19.701Z,11.67
2023-05-06T07:26:49.072Z,13.13
2023-05-06T07:29:17.313Z,11.93
2023-05-06T07:31:45.588Z,10.53
2023-05-06T07:34:16.134Z,10.37
2023-05-06T07:36:45.896Z,10.80
2023-05-06T07:39:16.266Z,9.60
2023-05-06T07:41:45.824Z,8.60
2023-05-06T07:44:13.943Z,8.40
2023-05-06T07:46:42.521Z,8.63
2023-05-06T07:49:11.020Z,9.63
2023-05-06T07:51:39.012Z,8.00
2023-05-06T07:54:08.845Z,7.20
2023-05-06T07:56:37.391Z,7.67
2023-05-06T07:59:06.195Z,7.10
2023-05-06T08:01:36.292Z,6.53
2023-05-06T08:04:04.937Z,6.73
2023-05-06T08:06:33.349Z,6.50
2023-05-06T08:09:04.087Z,7.37
2023-05-06T08:11:35.224Z,7.80
2023-05-06T08:14:03.697Z,8.20
2023-05-06T08:16:31.993Z,6.80
2023-05-06T08:18:59.967Z,7.03
2023-05-06T08:21:28.960Z,8.50
2023-05-06T08:23:57.040Z,7.30
2023-05-06T08:26:26.426Z,8.43
2023-05-06T08:28:56.360Z,7.20
2023-05-06T08:31:24.598Z,6.80
2023-05-06T08:33:54.661Z,6.87
2023-05-06T08:36:23.572Z,6.13
2023-05-06T08:38:51.939Z,6.20
2023-05-06T08:41:21.892Z,5.20
2023-05-06T08:43:52.395Z,5.80
2023-05-06T08:46:21.984Z,5.23
2023-05-06T08:48:50.134Z,4.90
2023-05-06T08:51:19.979Z,5.40
2023-05-06T08:53:50.669Z,5.33
2023-05-06T08:56:20.319Z,5.43
2023-05-06T08:58:53.840Z,5.10
2023-05-06T09:01:24.209Z,5.40
2023-05-06T09:03:53.389Z,4.97
2023-05-06T09:06:21.869Z,5.07
2023-05-06T09:08:50.054Z,5.00
2023-05-06T09:11:23.307Z,4.93
2023-05-06T09:13:52.729Z,5.07
2023-05-06T09:16:32.237Z,4.50
2023-05-06T09:19:00.770Z,4.77
2023-05-06T09:21:35.428Z,4.60
2023-05-06T09:24:04.680Z,3.80
2023-05-06T09:26:33.485Z,4.77
2023-05-06T09:29:02.790Z,5.37
2023-05-06T09:31:33.162Z,3.97
2023-05-06T09:34:02.877Z,5.30
2023-05-06T09:36:31.575Z,5.20
2023-05-06T09:39:00.040Z,4.70
2023-05-06T09:41:28.523Z,4.30
2023-05-06T09:43:59.303Z,4.30
2023-05-06T09:46:28.521Z,4.53
2023-05-06T09:48:58.963Z,4.47
2023-05-06T09:51:28.804Z,5.50
2023-05-06T09:54:01.197Z,4.60
2023-05-06T09:56:31.970Z,4.83
2023-05-06T09:59:05.462Z,4.83
2023-05-06T10:01:37.749Z,4.17
2023-05-06T10:04:11.114Z,5.20
2023-05-06T10:06:41.559Z,4.90
2023-05-06T10:09:11.039Z,4.60
2023-05-06T10:11:40.805Z,5.03
2023-05-06T10:14:09.872Z,5.00
2023-05-06T10:16:40.653Z,4.33
2023-05-06T10:19:10.947Z,5.13
2023-05-06T10:21:44.899Z,3.70
2023-05-06T10:24:19.433Z,3.53
2023-05-06T10:26:48.060Z,3.20
2023-05-06T10:29:19.013Z,3.40
2023-05-06T10:31:52.321Z,3.40
2023-05-06T10:34:23.255Z,3.13
2023-05-06T10:36:57.937Z,3.47
2023-05-06T10:39:27.383Z,3.20
2023-05-06T10:41:56.061Z,3.17
2023-05-06T10:44:57.751Z,3.43
2023-05-06T10:47:25.882Z,4.00
2023-05-06T10:50:23.248Z,3.30
2023-05-06T10:52:57.689Z,3.43
2023-05-06T10:55:34.683Z,2.83
2023-05-06T10:58:06.527Z,2.50
2023-05-06T11:00:35.754Z,2.80
2023-05-06T11:03:08.380Z,2.90
2023-05-06T11:05:49.155Z,3.17
2023-05-06T11:08:23.104Z,2.80
2023-05-06T11:10:52.413Z,2.97
2023-05-06T11:13:26.323Z,2.60
2023-05-06T11:15:57.105Z,3.07
2023-05-06T11:18:46.159Z,2.93
2023-05-06T11:21:41.286Z,2.50
2023-05-06T11:24:13.946Z,2.97
2023-05-06T11:26:45.452Z,2.80
2023-05-06T11:29:16.966Z,2.83
2023-05-06T11:31:45.991Z,2.97
2023-05-06T11:34:47.115Z,3.13
2023-05-06T11:37:25.962Z,3.03
2023-05-06T11:39:55.673Z,3.17
2023-05-06T11:42:30.219Z,2.60
2023-05-06T11:45:02.776Z,3.07
2023-05-06T11:47:31.652Z,2.90
2023-05-06T11:50:00.012Z,3.63
2023-05-06T11:52:32.003Z,3.13
2023-05-06T11:55:00.450Z,2.60
2023-05-06T11:57:28.447Z,2.90
2023-05-06T11:59:56.565Z,2.83
2023-05-06T12:02:27.050Z,3.10
2023-05-06T12:04:55.577Z,2.60
2023-05-06T12:07:24.662Z,2.90
2023-05-06T12:09:54.696Z,2.97
2023-05-06T12:12:25.463Z,3.03
2023-05-06T12:14:55.314Z,2.73
2023-05-06T12:17:26.458Z,2.70
2023-05-06T12:19:54.378Z,2.60
2023-05-06T12:22:24.918Z,2.43
2023-05-06T12:24:54.482Z,2.70
2023-05-06T12:27:33.168Z,2.77
2023-05-06T12:30:04.694Z,2.97
2023-05-06T12:32:34.672Z,3.03
2023-05-06T12:35:07.761Z,2.73
2023-05-06T12:37:35.856Z,2.20
2023-05-06T12:40:08.340Z,3.03
2023-05-06T12:42:37.318Z,3.50
2023-05-06T12:45:17.844Z,2.20
2023-05-06T12:47:58.802Z,3.20
2023-05-06T12:50:34.532Z,2.70
2023-05-06T12:53:03.315Z,2.70
2023-05-06T12:55:34.034Z,2.47
2023-05-06T12:58:03.548Z,2.43
2023-05-06T13:00:32.146Z,2.43
2023-05-06T13:03:00.715Z,2.70
2023-05-06T13:05:29.337Z,2.43
2023-05-06T13:07:57.623Z,2.40
2023-05-06T13:10:26.460Z,2.83
2023-05-06T13:12:56.390Z,2.40
2023-05-06T13:15:25.393Z,3.10
2023-05-06T13:17:54.073Z,2.83
2023-05-06T13:20:22.325Z,2.93
2023-05-06T13:22:54.881Z,3.13
2023-05-06T13:25:23.744Z,2.70
2023-05-06T13:27:52.333Z,3.40
2023-05-06T13:30:22.115Z,2.90
2023-05-06T13:32:50.246Z,2.87
2023-05-06T13:35:18.783Z,2.60
2023-05-06T13:37:48.314Z,2.40
2023-05-06T13:40:16.668Z,3.00
2023-05-06T13:42:45.258Z,2.63
2023-05-06T13:45:13.931Z,2.83
2023-05-06T13:47:44.557Z,2.40
2023-05-06T13:50:14.492Z,2.33
2023-05-06T13:52:42.857Z,2.80
2023-05-06T13:55:11.476Z,2.57
2023-05-06T13:57:39.815Z,2.73
2023-05-06T14:00:11.108Z,2.87
2023-05-06T14:02:39.110Z,2.50
2023-05-06T14:05:09.973Z,2.30
2023-05-06T14:07:41.473Z,2.40
2023-05-06T14:10:12.101Z,2.50
2023-05-06T14:12:41.945Z,2.53
2023-05-06T14:15:11.349Z,2.60
2023-05-06T14:17:40.056Z,2.33
2023-05-06T14:20:12.588Z,2.50
2023-05-06T14:22:42.776Z,2.50
2023-05-06T14:25:13.132Z,2.30
2023-05-06T14:27:41.433Z,2.30
2023-05-06T14:30:10.650Z,2.50
2023-05-06T14:32:38.900Z,2.40
2023-05-06T14:35:11.347Z,3.20
2023-05-06T14:37:40.385Z,2.67
2023-05-06T14:40:10.178Z,2.10
2023-05-06T14:42:38.523Z,2.17
2023-05-06T14:45:08.376Z,2.70
2023-05-06T14:47:36.908Z,2.37
2023-05-06T14:50:05.998Z,2.97
2023-05-06T14:52:36.100Z,2.83
2023-05-06T14:55:04.293Z,2.60
2023-05-06T14:57:32.759Z,2.90
2023-05-06T15:00:03.642Z,3.13
2023-05-06T15:02:32.581Z,2.73
2023-05-06T15:05:03.948Z,2.27
2023-05-06T15:07:33.101Z,2.77
2023-05-06T15:10:04.704Z,3.20
2023-05-06T15:12:33.812Z,3.07
2023-05-06T15:15:02.661Z,2.40
2023-05-06T15:17:31.167Z,2.57
2023-05-06T15:19:59.437Z,2.70
2023-05-06T15:22:28.059Z,2.57
2023-05-06T15:24:57.843Z,2.50
2023-05-06T15:27:27.912Z,2.87
2023-05-06T15:29:55.980Z,2.00
2023-05-06T15:32:24.906Z,2.30
2023-05-06T15:34:55.820Z,2.70
2023-05-06T15:37:24.310Z,2.50
2023-05-06T15:39:52.502Z,2.00
2023-05-06T15:42:20.782Z,3.00
2023-05-06T15:44:51.576Z,2.53
2023-05-06T15:47:19.927Z,3.07
2023-05-06T15:50:10.884Z,2.33
2023-05-06T15:52:36.238Z,2.23
2023-05-06T15:55:05.178Z,2.33
2023-05-06T15:57:33.594Z,2.60
2023-05-06T16:00:04.439Z,2.30
2023-05-06T16:02:32.822Z,2.73
2023-05-06T16:05:01.041Z,2.67
2023-05-06T16:07:34.560Z,2.23
2023-05-06T16:10:03.863Z,2.37
2023-05-06T16:12:32.746Z,2.57
2023-05-06T16:15:03.462Z,2.77
2023-05-06T16:17:37.701Z,2.53
2023-05-06T16:20:09.283Z,2.30
2023-05-06T16:22:41.816Z,2.50
2023-05-06T16:25:10.710Z,2.27
2023-05-06T16:27:38.950Z,2.53
2023-05-06T16:30:10.964Z,2.07
2023-05-06T16:32:40.630Z,2.77
2023-05-06T16:35:10.245Z,2.73
2023-05-06T16:37:38.472Z,2.60
2023-05-06T16:40:08.413Z,1.77
2023-05-06T16:42:36.883Z,2.60
2023-05-06T16:45:06.323Z,2.50
2023-05-06T16:47:36.082Z,2.67
2023-05-06T16:50:05.339Z,2.80
2023-05-06T16:52:33.492Z,2.77
2023-05-06T16:55:02.018Z,2.97
2023-05-06T16:57:30.271Z,2.63
2023-05-06T16:59:58.509Z,2.70
2023-05-06T17:02:27.141Z,3.03
2023-05-06T17:04:57.944Z,2.50
2023-05-06T17:07:28.041Z,3.13
2023-05-06T17:09:56.210Z,3.00
2023-05-06T17:12:25.097Z,3.50
2023-05-06T17:14:54.831Z,3.20
2023-05-06T17:17:24.941Z,2.20
2023-05-06T17:19:53.569Z,2.70
2023-05-06T17:22:24.886Z,3.47
2023-05-06T17:24:54.348Z,3.23
2023-05-06T17:27:22.948Z,3.10
2023-05-06T17:29:52.721Z,2.93
2023-05-06T17:32:21.063Z,2.43
2023-05-06T17:34:49.325Z,3.27
2023-05-06T17:37:18.434Z,3.33
2023-05-06T17:39:48.534Z,2.93
2023-05-06T17:42:19.356Z,2.83
2023-05-06T17:44:47.646Z,2.90
2023-05-06T17:47:17.529Z,2.93
2023-05-06T17:49:45.863Z,3.37
2023-05-06T17:52:14.019Z,3.67
2023-05-06T17:54:42.091Z,3.33
2023-05-06T17:57:12.159Z,3.93
2023-05-06T17:59:40.332Z,4.50
2023-05-06T18:02:10.295Z,4.17
2023-05-06T18:04:38.767Z,4.03
2023-05-06T18:07:07.288Z,4.83
2023-05-06T18:09:36.916Z,4.87
2023-05-06T18:12:05.449Z,4.47
2023-05-06T18:14:35.203Z,5.00
2023-05-06T18:17:03.608Z,4.97
2023-05-06T18:19:31.903Z,4.87
2023-05-06T18:21:59.806Z,5.20
2023-05-06T18:24:27.931Z,4.90
2023-05-06T18:26:56.568Z,5.00
2023-05-06T18:29:24.727Z,4.80
2023-05-06T18:31:54.247Z,5.30
2023-05-06T18:34:22.462Z,6.90
2023-05-06T18:36:52.934Z,4.90
2023-05-06T18:39:21.987Z,5.23
2023-05-06T18:41:50.544Z,4.70
2023-05-06T18:44:18.789Z,4.33
2023-05-06T18:46:46.709Z,4.30
2023-05-06T18:49:16.529Z,4.53
2023-05-06T18:51:47.956Z,5.07
2023-05-06T18:54:16.314Z,5.10
2023-05-06T18:56:45.072Z,4.10
2023-05-06T18:59:13.584Z,4.67
2023-05-06T19:01:41.944Z,4.30
2023-05-06T19:04:12.449Z,4.10
2023-05-06T19:06:42.273Z,4.37
2023-05-06T19:09:11.652Z,4.60
2023-05-06T19:11:40.198Z,4.87
2023-05-06T19:14:08.594Z,4.80
2023-05-06T19:16:36.647Z,5.27
2023-05-06T19:19:07.150Z,5.17
2023-05-06T19:21:35.869Z,6.10
2023-05-06T19:24:06.679Z,5.00
2023-05-06T19:26:35.030Z,4.73
2023-05-06T19:29:03.517Z,5.27
2023-05-06T19:31:31.749Z,5.17
2023-05-06T19:34:01.681Z,5.10
2023-05-06T19:36:31.768Z,4.80
2023-05-06T19:39:00.283Z,5.07
2023-05-06T19:41:30.090Z,4.87
2023-05-06T19:43:58.877Z,5.60
2023-05-06T19:46:26.911Z,5.10
2023-05-06T19:48:58.315Z,5.30
2023-05-06T19:51:26.902Z,5.30
2023-05-06T19:53:55.879Z,4.93
2023-05-06T19:56:24.639Z,5.40
2023-05-06T19:58:54.133Z,5.00
2023-05-06T20:01:25.027Z,5.17
2023-05-06T20:03:53.473Z,4.77
2023-05-06T20:06:21.632Z,5.30
2023-05-06T20:08:50.095Z,5.13
2023-05-06T20:11:18.180Z,4.83
2023-05-06T20:13:46.270Z,4.90
2023-05-06T20:16:16.185Z,4.53
2023-05-06T20:18:44.767Z,4.83
2023-05-06T20:21:16.926Z,6.13
2023-05-06T20:23:46.586Z,5.70
2023-05-06T20:26:14.754Z,4.83
2023-05-06T20:28:43.275Z,4.80
2023-05-06T20:31:11.501Z,4.67
2023-05-06T20:33:42.727Z,5.00
2023-05-06T20:36:11.500Z,5.60
2023-05-06T20:38:39.774Z,5.47
2023-05-06T20:41:08.239Z,6.13
2023-05-06T20:43:36.572Z,5.90
2023-05-06T20:46:05.600Z,7.03
2023-05-06T20:48:34.002Z,6.10
2023-05-06T20:51:03.546Z,6.27
2023-05-06T20:53:31.974Z,5.50
2023-05-06T20:56:00.109Z,5.10
2023-05-06T20:58:29.784Z,4.93
2023-05-06T21:01:00.073Z,5.40
2023-05-06T21:03:28.223Z,4.77
2023-05-06T21:05:56.304Z,4.83
2023-05-06T21:08:25.919Z,5.00
2023-05-06T21:10:54.923Z,4.60
2023-05-06T21:13:23.402Z,4.60
2023-05-06T21:15:51.790Z,5.83
2023-05-06T21:18:20.053Z,6.10
2023-05-06T21:20:49.070Z,5.70
2023-05-06T21:23:19.057Z,5.40
2023-05-06T21:25:49.089Z,5.90
2023-05-06T21:28:17.573Z,5.87
2023-05-06T21:30:45.853Z,5.87
2023-05-06T21:33:14.458Z,6.00
2023-05-06T21:35:43.801Z,5.60
2023-05-06T21:38:12.112Z,5.50
2023-05-06T21:40:41.371Z,5.53
2023-05-06T21:43:11.343Z,5.73
2023-05-06T21:45:39.752Z,5.67
2023-05-06T21:48:09.717Z,5.53
2023-05-06T21:50:38.589Z,4.50
2023-05-06T21:53:06.704Z,4.43
2023-05-06T21:55:35.314Z,5.90
2023-05-06T21:58:06.765Z,4.93
2023-05-06T22:00:37.031Z,4.67
2023-05-06T22:03:05.595Z,5.03
2023-05-06T22:05:33.727Z,4.70
2023-05-06T22:08:01.666Z,4.80
2023-05-06T22:10:31.354Z,4.67
2023-05-06T22:12:59.668Z,4.90
2023-05-06T22:15:27.868Z,4.47
2023-05-06T22:17:59.313Z,4.67
2023-05-06T22:20:28.699Z,4.57
2023-05-06T22:22:59.426Z,4.63
2023-05-06T22:25:27.777Z,4.80
2023-05-06T22:27:55.918Z,4.73
2023-05-06T22:30:24.318Z,4.67
2023-05-06T22:32:52.261Z,4.37
2023-05-06T22:35:22.149Z,4.10
2023-05-06T22:37:50.320Z,4.73
2023-05-06T22:40:18.443Z,4.23
2023-05-06T22:42:48.438Z,5.30
2023-05-06T22:45:16.791Z,4.30
2023-05-06T22:47:45.115Z,4.30
2023-05-06T22:50:13.760Z,5.17
2023-05-06T22:52:43.598Z,5.73
2023-05-06T22:55:16.599Z,6.07
2023-05-06T22:57:44.966Z,9.33
2023-05-06T23:00:16.426Z,10.47
2023-05-06T23:02:45.027Z,14.57
2023-05-06T23:05:13.999Z,16.27
2023-05-06T23:07:43.786Z,9.50
2023-05-06T23:10:12.606Z,6.60
2023-05-06T23:12:41.280Z,7.80
2023-05-06T23:15:10.939Z,6.40
2023-05-06T23:17:39.310Z,6.90
2023-05-06T23:20:09.042Z,7.93
2023-05-06T23:22:37.129Z,4.70
2023-05-06T23:25:09.356Z,5.20
2023-05-06T23:27:40.339Z,5.77
2023-05-06T23:30:10.148Z,4.30
2023-05-06T23:32:39.444Z,4.90
2023-05-06T23:35:09.423Z,5.63
2023-05-06T23:37:38.283Z,4.63
2023-05-06T23:40:11.260Z,6.20
2023-05-06T23:42:39.785Z,5.20
2023-05-06T23:45:10.852Z,5.30
2023-05-06T23:47:42.143Z,5.23
2023-05-06T23:50:11.024Z,5.33
2023-05-06T23:52:39.683Z,6.23
2023-05-06T23:55:10.975Z,6.67
2023-05-06T23:57:39.496Z,7.40
